createdAt,value
2018-10-04T00:00:38.521Z,5.86
2018-10-04T00:03:07.454Z,5.78
2018-10-04T00:05:36.000Z,5.78
2018-10-04T00:08:04.584Z,5.67
2018-10-04T00:10:33.220Z,5.67
2018-10-04T00:13:01.769Z,5.63
2018-10-04T00:15:30.305Z,5.72
2018-10-04T00:17:58.948Z,5.72
2018-10-04T00:20:27.496Z,5.51
2018-10-04T00:22:56.032Z,5.52
2018-10-04T00:25:24.888Z,5.71
2018-10-04T00:27:53.464Z,5.52
2018-10-04T00:30:22.048Z,5.52
2018-10-04T00:32:50.796Z,5.37
2018-10-04T00:35:19.328Z,5.38
2018-10-04T00:37:47.868Z,5.51
2018-10-04T00:40:16.465Z,5.56
2018-10-04T00:42:45.025Z,5.49
2018-10-04T00:45:13.661Z,5.56
2018-10-04T00:47:42.285Z,5.43
2018-10-04T00:50:11.021Z,5.50
2018-10-04T00:52:39.589Z,5.34
2018-10-04T00:55:08.151Z,5.34
2018-10-04T00:57:36.720Z,5.25
2018-10-04T01:00:05.484Z,5.22
2018-10-04T01:02:34.236Z,5.29
2018-10-04T01:05:02.914Z,5.36
2018-10-04T01:07:31.636Z,5.43
2018-10-04T01:10:00.308Z,5.55
2018-10-04T01:12:28.907Z,5.54
2018-10-04T01:14:57.520Z,5.42
2018-10-04T01:17:26.340Z,5.38
2018-10-04T01:19:54.884Z,5.36
2018-10-04T01:22:23.448Z,5.33
2018-10-04T01:24:52.140Z,5.29
2018-10-04T01:27:20.771Z,5.53
2018-10-04T01:29:49.384Z,5.19
2018-10-04T01:32:17.990Z,5.19
2018-10-04T01:34:46.809Z,5.18
2018-10-04T01:37:15.377Z,5.17
2018-10-04T01:39:44.363Z,5.10
2018-10-04T01:42:13.725Z,5.01
2018-10-04T01:44:42.284Z,5.17
2018-10-04T01:47:11.090Z,5.30
2018-10-04T01:49:39.605Z,5.31
2018-10-04T01:52:08.169Z,5.27
2018-10-04T01:54:36.928Z,5.09
2018-10-04T01:57:05.509Z,5.13
2018-10-04T01:59:34.073Z,5.08
2018-10-04T02:02:02.717Z,4.93
2018-10-04T02:04:31.259Z,4.93
2018-10-04T02:06:59.864Z,5.18
2018-10-04T02:09:28.632Z,5.20
2018-10-04T02:11:57.265Z,5.04
2018-10-04T02:14:25.938Z,4.97
2018-10-04T02:16:54.693Z,4.94
2018-10-04T02:19:23.288Z,5.00
2018-10-04T02:21:51.932Z,5.13
2018-10-04T02:24:20.558Z,5.14
2018-10-04T02:26:49.153Z,5.02
2018-10-04T02:29:17.751Z,5.10
2018-10-04T02:31:46.384Z,4.84
2018-10-04T02:34:14.922Z,4.89
2018-10-04T02:36:43.434Z,5.02
2018-10-04T02:39:12.068Z,5.05
2018-10-04T02:41:40.612Z,5.08
2018-10-04T02:44:09.298Z,5.06
2018-10-04T02:46:38.033Z,4.85
2018-10-04T02:49:06.733Z,4.88
2018-10-04T02:51:35.369Z,4.90
2018-10-04T02:54:04.130Z,4.90
2018-10-04T02:56:37.840Z,4.86
2018-10-04T02:59:06.574Z,4.78
2018-10-04T03:01:35.129Z,4.63
2018-10-04T03:04:03.709Z,4.67
2018-10-04T03:06:32.337Z,4.79
2018-10-04T03:09:00.859Z,4.87
2018-10-04T03:11:29.497Z,4.69
2018-10-04T03:13:58.444Z,4.80
2018-10-04T03:16:27.105Z,4.87
2018-10-04T03:18:55.733Z,4.95
2018-10-04T03:21:24.507Z,4.93
2018-10-04T03:23:53.931Z,4.76
2018-10-04T03:26:22.509Z,4.71
2018-10-04T03:28:51.280Z,4.65
2018-10-04T03:31:19.804Z,4.72
2018-10-04T03:33:48.397Z,4.70
2018-10-04T03:36:16.944Z,4.78
2018-10-04T03:38:46.272Z,5.00
2018-10-04T03:41:14.918Z,4.88
2018-10-04T03:43:43.969Z,4.95
2018-10-04T03:46:12.604Z,5.04
2018-10-04T03:48:41.192Z,4.98
2018-10-04T03:51:09.945Z,4.96
2018-10-04T03:53:38.473Z,4.87
2018-10-04T03:56:07.132Z,4.64
2018-10-04T03:58:35.733Z,4.59
2018-10-04T04:01:04.286Z,4.67
2018-10-04T04:03:32.875Z,4.63
2018-10-04T04:06:01.861Z,4.57
2018-10-04T04:08:30.372Z,4.58
2018-10-04T04:10:59.013Z,4.44
2018-10-04T04:13:27.591Z,4.58
2018-10-04T04:15:56.186Z,4.60
2018-10-04T04:18:24.721Z,4.53
2018-10-04T04:20:53.300Z,4.53
2018-10-04T04:23:21.926Z,4.51
2018-10-04T04:25:50.472Z,4.45
2018-10-04T04:28:19.114Z,4.44
2018-10-04T04:30:47.857Z,4.40
2018-10-04T04:33:16.281Z,4.36
2018-10-04T04:35:44.828Z,4.31
2018-10-04T04:38:13.456Z,4.33
2018-10-04T04:40:42.025Z,4.20
2018-10-04T04:43:10.853Z,4.15
2018-10-04T04:45:39.357Z,4.20
2018-10-04T04:48:07.896Z,4.22
2018-10-04T04:50:36.557Z,4.11
2018-10-04T04:53:14.929Z,4.17
2018-10-04T04:55:44.616Z,4.08
2018-10-04T04:58:14.316Z,4.08
2018-10-04T05:00:45.264Z,4.08
2018-10-04T05:03:13.821Z,4.21
2018-10-04T05:05:42.429Z,4.08
2018-10-04T05:08:11.576Z,4.11
2018-10-04T05:10:40.457Z,4.21
2018-10-04T05:13:10.220Z,4.08
2018-10-04T05:15:39.016Z,4.06
2018-10-04T05:18:07.560Z,4.12
2018-10-04T05:20:36.129Z,4.18
2018-10-04T05:23:04.912Z,4.39
2018-10-04T05:25:33.588Z,4.33
2018-10-04T05:28:02.280Z,4.40
2018-10-04T05:30:30.891Z,4.36
2018-10-04T05:32:59.480Z,4.28
2018-10-04T05:35:28.189Z,4.17
2018-10-04T05:37:56.964Z,4.16
2018-10-04T05:40:25.542Z,4.03
2018-10-04T05:42:54.576Z,3.93
2018-10-04T05:45:23.389Z,3.98
2018-10-04T05:47:51.832Z,3.99
2018-10-04T05:50:20.373Z,4.16
2018-10-04T05:52:49.289Z,4.26
2018-10-04T05:55:17.848Z,4.22
2018-10-04T05:57:46.448Z,4.29
2018-10-04T06:00:38.441Z,4.31
2018-10-04T06:03:07.413Z,4.34
2018-10-04T06:05:36.176Z,4.29
2018-10-04T06:08:05.261Z,4.42
2018-10-04T06:10:34.212Z,4.47
2018-10-04T06:13:03.332Z,4.61
2018-10-04T06:15:32.422Z,4.59
2018-10-04T06:18:00.976Z,4.64
2018-10-04T06:20:32.193Z,4.85
2018-10-04T06:23:00.808Z,4.91
2018-10-04T06:25:29.389Z,5.08
2018-10-04T06:27:58.184Z,5.11
2018-10-04T06:30:26.812Z,5.19
2018-10-04T06:32:55.560Z,5.24
2018-10-04T06:35:24.247Z,5.35
2018-10-04T06:37:52.812Z,5.46
2018-10-04T06:40:21.347Z,5.53
2018-10-04T06:42:50.112Z,5.61
2018-10-04T06:45:18.912Z,5.64
2018-10-04T06:47:47.573Z,5.77
2018-10-04T06:50:16.235Z,5.75
2018-10-04T06:52:44.869Z,6.17
2018-10-04T06:55:13.459Z,6.53
2018-10-04T06:57:42.073Z,6.54
2018-10-04T07:00:10.799Z,6.45
2018-10-04T07:02:39.438Z,6.54
2018-10-04T07:05:08.173Z,6.58
2018-10-04T07:07:36.900Z,6.69
2018-10-04T07:10:05.793Z,6.90
2018-10-04T07:12:34.593Z,6.90
2018-10-04T07:15:03.176Z,6.98
2018-10-04T07:17:31.747Z,7.11
2018-10-04T07:20:00.348Z,7.50
2018-10-04T07:22:29.052Z,7.72
2018-10-04T07:24:57.657Z,7.82
2018-10-04T07:27:26.309Z,7.88
2018-10-04T07:29:55.007Z,7.90
2018-10-04T07:32:23.672Z,7.99
2018-10-04T07:34:52.442Z,8.17
2018-10-04T07:37:21.051Z,8.09
2018-10-04T07:39:49.641Z,8.10
2018-10-04T07:42:18.578Z,8.17
2018-10-04T07:44:47.213Z,8.59
2018-10-04T07:47:15.916Z,8.39
2018-10-04T07:49:44.640Z,8.70
2018-10-04T07:52:13.192Z,8.72
2018-10-04T07:54:41.817Z,8.87
2018-10-04T07:57:10.452Z,8.89
2018-10-04T07:59:39.089Z,8.70
2018-10-04T08:02:07.794Z,8.90
2018-10-04T08:04:36.480Z,9.39
2018-10-04T08:07:05.076Z,9.30
2018-10-04T08:09:33.829Z,9.41
2018-10-04T08:12:02.533Z,9.39
2018-10-04T08:14:31.161Z,9.38
2018-10-04T08:16:59.888Z,9.58
2018-10-04T08:19:28.688Z,9.74
2018-10-04T08:21:57.269Z,9.93
2018-10-04T08:24:26.017Z,10.00
2018-10-04T08:26:54.808Z,9.85
2018-10-04T08:29:23.360Z,9.90
2018-10-04T08:31:51.909Z,10.15
2018-10-04T08:34:20.696Z,10.21
2018-10-04T08:36:49.263Z,10.59
2018-10-04T08:39:17.945Z,10.34
2018-10-04T08:41:46.561Z,10.56
2018-10-04T08:44:15.137Z,10.56
2018-10-04T08:46:43.680Z,10.58
2018-10-04T08:49:12.496Z,10.85
2018-10-04T08:51:46.252Z,10.96
2018-10-04T08:54:15.369Z,11.31
2018-10-04T08:56:43.989Z,11.74
2018-10-04T08:59:12.749Z,11.66
2018-10-04T09:01:41.356Z,11.71
2018-10-04T09:04:10.005Z,11.63
2018-10-04T09:06:38.576Z,12.03
2018-10-04T09:09:07.765Z,11.97
2018-10-04T09:11:36.399Z,12.18
2018-10-04T09:14:04.984Z,12.35
2018-10-04T09:16:33.809Z,12.48
2018-10-04T09:19:02.456Z,12.39
2018-10-04T09:21:31.097Z,12.45
2018-10-04T09:23:59.678Z,12.62
2018-10-04T09:26:28.375Z,12.64
2018-10-04T09:29:02.177Z,12.89
2018-10-04T09:31:34.740Z,13.19
2018-10-04T09:34:03.545Z,13.32
2018-10-04T09:36:32.197Z,13.37
2018-10-04T09:39:00.964Z,13.64
2018-10-04T09:41:29.576Z,13.80
2018-10-04T09:43:58.165Z,13.76
2018-10-04T09:46:26.898Z,13.96
2018-10-04T09:48:55.708Z,14.11
2018-10-04T09:51:29.580Z,14.16
2018-10-04T09:53:59.057Z,14.28
2018-10-04T09:56:32.993Z,14.34
2018-10-04T09:59:04.105Z,14.50
2018-10-04T10:01:37.937Z,14.92
2018-10-04T10:04:07.444Z,14.71
2018-10-04T10:06:36.149Z,14.69
2018-10-04T10:09:06.498Z,14.57
2018-10-04T10:11:35.265Z,14.91
2018-10-04T10:14:03.936Z,15.02
2018-10-04T10:16:32.509Z,14.74
2018-10-04T10:19:01.053Z,14.78
2018-10-04T10:21:29.621Z,14.85
2018-10-04T10:23:58.212Z,15.08
2018-10-04T10:26:26.813Z,15.05
2018-10-04T10:28:55.570Z,15.22
2018-10-04T10:31:24.460Z,15.11
2018-10-04T10:33:53.016Z,14.99
2018-10-04T10:36:21.629Z,15.22
2018-10-04T10:38:50.449Z,15.26
2018-10-04T10:41:19.040Z,15.33
2018-10-04T10:43:47.608Z,15.65
2018-10-04T10:46:16.582Z,15.96
2018-10-04T10:48:45.083Z,16.14
2018-10-04T10:51:13.724Z,16.08
2018-10-04T10:53:42.533Z,16.21
2018-10-04T10:56:11.172Z,15.82
2018-10-04T10:58:39.788Z,15.99
2018-10-04T11:01:08.579Z,15.92
2018-10-04T11:03:37.121Z,15.87
2018-10-04T11:06:05.729Z,16.07
2018-10-04T11:08:34.332Z,16.31
2018-10-04T11:11:03.016Z,16.32
2018-10-04T11:13:31.564Z,16.06
2018-10-04T11:16:01.032Z,15.84
2018-10-04T11:18:29.824Z,16.36
2018-10-04T11:20:58.343Z,16.44
2018-10-04T11:23:27.041Z,16.21
2018-10-04T11:25:55.688Z,16.43
2018-10-04T11:28:24.273Z,16.52
2018-10-04T11:30:53.014Z,16.41
2018-10-04T11:33:21.685Z,16.64
2018-10-04T11:35:50.229Z,16.62
2018-10-04T11:38:18.974Z,16.33
2018-10-04T11:40:47.648Z,16.25
2018-10-04T11:43:18.536Z,16.42
2018-10-04T11:45:47.313Z,16.82
2018-10-04T11:48:18.899Z,17.13
2018-10-04T11:50:47.641Z,16.95
2018-10-04T11:53:16.184Z,17.11
2018-10-04T11:55:44.948Z,17.16
2018-10-04T11:58:13.638Z,16.81
2018-10-04T12:00:42.324Z,16.90
2018-10-04T12:03:11.076Z,16.80
2018-10-04T12:05:39.712Z,16.97
2018-10-04T12:08:08.328Z,16.75
2018-10-04T12:10:36.987Z,16.84
2018-10-04T12:13:05.609Z,17.38
2018-10-04T12:15:34.169Z,17.55
2018-10-04T12:18:02.749Z,17.39
2018-10-04T12:20:31.311Z,17.25
2018-10-04T12:22:59.856Z,17.52
2018-10-04T12:25:28.794Z,16.94
2018-10-04T12:27:57.330Z,17.25
2018-10-04T12:30:25.869Z,17.32
2018-10-04T12:32:55.089Z,17.46
2018-10-04T12:35:23.771Z,17.63
2018-10-04T12:37:52.360Z,17.48
2018-10-04T12:40:21.089Z,17.31
2018-10-04T12:42:49.696Z,17.05
2018-10-04T12:45:18.276Z,17.33
2018-10-04T12:47:47.009Z,17.32
2018-10-04T12:50:15.633Z,17.41
2018-10-04T12:52:44.268Z,17.46
2018-10-04T12:55:12.865Z,17.24
2018-10-04T12:57:41.424Z,17.42
2018-10-04T13:00:10.177Z,17.34
2018-10-04T13:02:38.852Z,17.50
2018-10-04T13:05:07.517Z,17.63
2018-10-04T13:07:36.536Z,17.71
2018-10-04T13:10:05.168Z,18.05
2018-10-04T13:12:33.701Z,17.71
2018-10-04T13:15:02.328Z,17.99
2018-10-04T13:17:30.952Z,17.90
2018-10-04T13:19:59.679Z,17.85
2018-10-04T13:22:28.228Z,17.84
2018-10-04T13:24:56.934Z,17.79
2018-10-04T13:27:25.634Z,17.83
2018-10-04T13:29:54.241Z,17.92
2018-10-04T13:32:22.825Z,18.01
2018-10-04T13:34:51.343Z,17.96
2018-10-04T13:37:20.132Z,17.97
2018-10-04T13:39:48.707Z,17.91
2018-10-04T13:42:17.252Z,17.78
2018-10-04T13:44:45.900Z,17.70
2018-10-04T13:47:14.617Z,17.69
2018-10-04T13:49:43.214Z,17.99
2018-10-04T13:52:11.872Z,18.02
2018-10-04T13:54:40.478Z,17.92
2018-10-04T13:57:09.078Z,17.82
2018-10-04T13:59:37.877Z,17.82
2018-10-04T14:02:06.746Z,17.93
2018-10-04T14:04:35.592Z,17.99
2018-10-04T14:07:04.140Z,18.09
2018-10-04T14:09:32.793Z,18.38
2018-10-04T14:12:01.313Z,18.10
2018-10-04T14:14:30.260Z,18.18
2018-10-04T14:17:00.942Z,18.15
2018-10-04T14:19:29.674Z,18.09
2018-10-04T14:21:58.217Z,18.15
2018-10-04T14:24:27.269Z,18.09
2018-10-04T14:26:55.901Z,17.97
2018-10-04T14:29:24.451Z,18.06
2018-10-04T14:31:53.189Z,18.16
2018-10-04T14:34:21.800Z,18.01
2018-10-04T14:36:50.374Z,18.16
2018-10-04T14:39:19.178Z,18.08
2018-10-04T14:41:47.761Z,18.01
2018-10-04T14:44:16.465Z,18.20
2018-10-04T14:46:45.189Z,18.06
2018-10-04T14:49:14.188Z,18.06
2018-10-04T14:51:42.777Z,18.03
2018-10-04T14:54:11.617Z,17.98
2018-10-04T14:56:40.339Z,18.05
2018-10-04T14:59:09.429Z,17.97
2018-10-04T15:01:38.039Z,18.08
2018-10-04T15:04:06.789Z,18.16
2018-10-04T15:06:36.120Z,18.04
2018-10-04T15:09:06.004Z,18.01
2018-10-04T15:11:34.556Z,18.00
2018-10-04T15:14:03.256Z,17.90
2018-10-04T15:16:32.033Z,17.90
2018-10-04T15:19:00.836Z,17.92
2018-10-04T15:21:29.654Z,17.85
2018-10-04T15:23:58.217Z,17.90
2018-10-04T15:26:27.008Z,17.83
2018-10-04T15:28:55.781Z,17.81
2018-10-04T15:31:24.296Z,17.82
2018-10-04T15:33:52.881Z,17.80
2018-10-04T15:36:21.858Z,17.77
2018-10-04T15:38:50.388Z,17.90
2018-10-04T15:41:19.080Z,17.81
2018-10-04T15:43:47.911Z,17.74
2018-10-04T15:46:16.693Z,17.78
2018-10-04T15:48:45.332Z,17.73
2018-10-04T15:51:14.448Z,17.76
2018-10-04T15:53:43.181Z,17.67
2018-10-04T15:56:12.044Z,17.69
2018-10-04T15:58:40.712Z,17.69
2018-10-04T16:01:09.308Z,17.57
2018-10-04T16:03:37.923Z,17.72
2018-10-04T16:06:06.613Z,17.60
2018-10-04T16:08:35.575Z,17.48
2018-10-04T16:11:04.244Z,17.47
2018-10-04T16:13:33.864Z,17.61
2018-10-04T16:16:02.503Z,17.44
2018-10-04T16:18:31.124Z,17.51
2018-10-04T16:20:59.863Z,17.39
2018-10-04T16:23:28.428Z,17.26
2018-10-04T16:25:56.981Z,17.13
2018-10-04T16:28:25.677Z,17.18
2018-10-04T16:30:54.352Z,17.03
2018-10-04T16:33:22.936Z,16.93
2018-10-04T16:35:51.557Z,16.86
2018-10-04T16:38:20.186Z,16.70
2018-10-04T16:40:48.689Z,16.47
2018-10-04T16:43:17.449Z,16.17
2018-10-04T16:45:46.124Z,16.18
2018-10-04T16:48:14.672Z,16.04
2018-10-04T16:50:43.260Z,15.64
2018-10-04T16:53:11.940Z,15.27
2018-10-04T16:55:40.516Z,15.33
2018-10-04T16:58:09.112Z,15.15
2018-10-04T17:00:37.649Z,14.96
2018-10-04T17:03:06.475Z,14.83
2018-10-04T17:05:35.408Z,14.59
2018-10-04T17:08:03.995Z,14.54
2018-10-04T17:10:32.588Z,14.48
2018-10-04T17:13:01.313Z,14.21
2018-10-04T17:15:29.968Z,14.23
2018-10-04T17:17:58.569Z,14.13
2018-10-04T17:20:27.521Z,14.05
2018-10-04T17:22:56.188Z,13.91
2018-10-04T17:25:24.737Z,13.85
2018-10-04T17:27:53.342Z,13.80
2018-10-04T17:30:21.892Z,13.47
2018-10-04T17:32:50.501Z,13.45
2018-10-04T17:35:19.336Z,13.42
2018-10-04T17:37:47.965Z,13.32
2018-10-04T17:40:16.614Z,13.23
2018-10-04T17:42:45.665Z,13.25
2018-10-04T17:45:14.723Z,13.19
2018-10-04T17:47:43.618Z,13.17
2018-10-04T17:50:12.304Z,13.01
2018-10-04T17:52:40.992Z,13.04
2018-10-04T17:55:09.561Z,12.95
2018-10-04T17:57:39.247Z,12.88
2018-10-04T18:00:09.413Z,12.82
2018-10-04T18:02:38.020Z,12.81
2018-10-04T18:05:07.049Z,12.80
2018-10-04T18:07:35.871Z,12.81
2018-10-04T18:10:04.559Z,12.79
2018-10-04T18:12:33.245Z,12.53
2018-10-04T18:15:01.832Z,12.37
2018-10-04T18:17:30.497Z,12.22
2018-10-04T18:19:59.081Z,12.05
2018-10-04T18:22:27.677Z,11.98
2018-10-04T18:24:56.352Z,11.84
2018-10-04T18:27:25.241Z,11.80
2018-10-04T18:29:53.752Z,11.64
2018-10-04T18:32:22.423Z,11.49
2018-10-04T18:34:51.160Z,11.52
2018-10-04T18:37:19.692Z,11.43
2018-10-04T18:39:48.264Z,11.36
2018-10-04T18:42:16.856Z,11.36
2018-10-04T18:44:45.384Z,11.34
2018-10-04T18:47:13.964Z,11.13
2018-10-04T18:49:43.488Z,10.88
2018-10-04T18:52:12.996Z,10.90
2018-10-04T18:54:41.706Z,10.92
2018-10-04T18:57:10.341Z,10.77
2018-10-04T18:59:39.026Z,10.66
2018-10-04T19:02:07.626Z,10.60
2018-10-04T19:04:36.345Z,10.44
2018-10-04T19:07:05.039Z,10.43
2018-10-04T19:09:33.626Z,10.22
2018-10-04T19:12:02.442Z,10.16
2018-10-04T19:14:31.192Z,10.07
2018-10-04T19:16:59.936Z,9.96
2018-10-04T19:19:28.614Z,9.98
2018-10-04T19:21:57.402Z,9.92
2018-10-04T19:24:26.372Z,9.90
2018-10-04T19:26:55.009Z,9.83
2018-10-04T19:29:23.593Z,9.93
2018-10-04T19:31:52.489Z,9.73
2018-10-04T19:34:21.582Z,9.61
2018-10-04T19:36:50.622Z,9.66
2018-10-04T19:39:19.548Z,9.58
2018-10-04T19:41:48.558Z,10.43
2018-10-04T19:44:17.534Z,10.58
2018-10-04T19:46:46.416Z,10.14
2018-10-04T19:49:15.262Z,9.84
2018-10-04T19:51:43.974Z,9.67
2018-10-04T19:54:12.679Z,9.61
2018-10-04T19:56:41.361Z,9.56
2018-10-04T19:59:10.578Z,9.36
2018-10-04T20:01:39.249Z,9.16
2018-10-04T20:04:08.466Z,9.29
2018-10-04T20:06:37.014Z,9.23
2018-10-04T20:09:07.562Z,9.09
2018-10-04T20:11:36.212Z,9.09
2018-10-04T20:14:04.772Z,8.95
2018-10-04T20:16:33.805Z,9.02
2018-10-04T20:19:02.733Z,9.01
2018-10-04T20:21:31.404Z,8.85
2018-10-04T20:24:00.125Z,8.85
2018-10-04T20:26:28.662Z,8.89
2018-10-04T20:28:57.160Z,8.83
2018-10-04T20:31:25.896Z,8.73
2018-10-04T20:33:54.448Z,8.56
2018-10-04T20:36:22.968Z,8.65
2018-10-04T20:38:51.621Z,8.48
2018-10-04T20:41:20.241Z,8.39
2018-10-04T20:43:48.852Z,8.31
2018-10-04T20:46:17.568Z,8.21
2018-10-04T20:48:46.241Z,8.26
2018-10-04T20:51:14.821Z,8.11
2018-10-04T20:53:43.459Z,8.13
2018-10-04T20:56:12.019Z,8.14
2018-10-04T20:58:40.641Z,8.27
2018-10-04T21:01:09.668Z,8.29
2018-10-04T21:03:38.201Z,8.39
2018-10-04T21:06:06.793Z,8.26
2018-10-04T21:08:35.450Z,8.43
2018-10-04T21:11:03.997Z,8.30
2018-10-04T21:13:32.610Z,8.23
2018-10-04T21:16:01.653Z,8.26
2018-10-04T21:18:30.300Z,8.18
2018-10-04T21:20:59.229Z,8.21
2018-10-04T21:23:27.973Z,8.09
2018-10-04T21:25:56.612Z,8.08
2018-10-04T21:28:25.204Z,8.19
2018-10-04T21:30:54.061Z,8.08
2018-10-04T21:33:22.641Z,8.09
2018-10-04T21:35:51.512Z,7.87
2018-10-04T21:38:20.169Z,7.94
2018-10-04T21:40:48.793Z,7.70
2018-10-04T21:43:17.420Z,7.71
2018-10-04T21:45:46.057Z,7.68
2018-10-04T21:48:14.564Z,7.54
2018-10-04T21:50:43.512Z,7.43
2018-10-04T21:53:12.417Z,7.39
2018-10-04T21:55:40.985Z,7.47
2018-10-04T21:58:09.518Z,7.30
2018-10-04T22:00:42.365Z,7.18
2018-10-04T22:03:11.044Z,7.03
2018-10-04T22:05:39.596Z,7.10
2018-10-04T22:08:08.224Z,7.01
2018-10-04T22:10:36.887Z,7.01
2018-10-04T22:13:05.478Z,7.04
2018-10-04T22:15:34.200Z,7.07
2018-10-04T22:18:02.862Z,7.06
2018-10-04T22:20:31.444Z,7.05
2018-10-04T22:23:00.197Z,7.10
2018-10-04T22:25:28.861Z,6.89
2018-10-04T22:27:57.406Z,6.92
2018-10-04T22:30:25.977Z,6.89
2018-10-04T22:32:54.520Z,6.87
2018-10-04T22:35:23.144Z,6.84
2018-10-04T22:37:51.796Z,6.88
2018-10-04T22:40:20.961Z,6.75
2018-10-04T22:42:49.752Z,6.57
2018-10-04T22:45:18.884Z,6.83
2018-10-04T22:47:47.784Z,6.81
2018-10-04T22:50:16.579Z,6.71
2018-10-04T22:52:45.176Z,6.72
2018-10-04T22:55:13.744Z,6.63
2018-10-04T22:57:42.344Z,6.56
2018-10-04T23:00:11.080Z,6.55
2018-10-04T23:02:39.609Z,6.37
2018-10-04T23:05:08.354Z,6.41
2018-10-04T23:07:37.096Z,6.45
2018-10-04T23:10:05.704Z,6.44
2018-10-04T23:12:34.328Z,6.42
2018-10-04T23:15:02.996Z,6.43
2018-10-04T23:17:31.648Z,6.49
2018-10-04T23:20:00.253Z,6.36
2018-10-04T23:22:29.068Z,6.18
2018-10-04T23:24:57.789Z,6.21
2018-10-04T23:27:26.408Z,6.23
2018-10-04T23:29:54.917Z,6.28
2018-10-04T23:32:23.509Z,6.11
2018-10-04T23:34:52.092Z,6.20
2018-10-04T23:37:20.653Z,6.23
2018-10-04T23:39:49.203Z,6.09
2018-10-04T23:42:17.793Z,6.21
2018-10-04T23:44:46.749Z,6.10
2018-10-04T23:47:15.377Z,6.05
2018-10-04T23:49:43.976Z,6.00
2018-10-04T23:52:12.722Z,5.72
2018-10-04T23:54:41.273Z,5.89
2018-10-04T23:57:09.801Z,5.88
2018-10-04T23:59:38.461Z,5.87
